createdAt,value
2016-06-30T00:00:23.332Z,0
2016-06-30T00:01:23.323Z,0
2016-06-30T00:02:22.703Z,0
2016-06-30T00:03:23.276Z,0
2016-06-30T00:04:23.402Z,0
2016-06-30T00:05:22.076Z,0
2016-06-30T00:06:22.656Z,0
2016-06-30T00:07:24.987Z,0
2016-06-30T00:08:24.599Z,0
2016-06-30T00:09:23.313Z,0
2016-06-30T00:10:24.023Z,0
2016-06-30T00:11:23.888Z,0
2016-06-30T00:12:23.194Z,0
2016-06-30T00:13:22.652Z,0
2016-06-30T00:14:23.290Z,0
2016-06-30T00:15:23.887Z,0
2016-06-30T00:17:23.240Z,0
2016-06-30T00:18:23.685Z,0
2016-06-30T00:19:23.274Z,0
2016-06-30T00:20:23.154Z,0
2016-06-30T00:21:23.490Z,0
2016-06-30T00:22:22.229Z,0
2016-06-30T00:23:23.250Z,0
2016-06-30T00:24:23.284Z,0
2016-06-30T00:25:22.020Z,0
2016-06-30T00:26:22.643Z,0
2016-06-30T00:27:22.027Z,0
2016-06-30T00:28:23.223Z,0
2016-06-30T00:29:23.840Z,0
2016-06-30T00:30:22.619Z,0
2016-06-30T00:31:23.251Z,0
2016-06-30T00:32:23.234Z,0
2016-06-30T00:33:23.224Z,0
2016-06-30T00:34:22.598Z,0
2016-06-30T00:35:23.821Z,0
2016-06-30T00:36:23.210Z,0
2016-06-30T00:37:22.599Z,0
2016-06-30T00:38:23.814Z,0
2016-06-30T00:39:22.612Z,0
2016-06-30T00:40:23.194Z,0
2016-06-30T00:41:24.266Z,0
2016-06-30T00:42:24.691Z,0
2016-06-30T00:43:23.387Z,0
2016-06-30T00:44:23.265Z,0
2016-06-30T00:45:24.365Z,0
2016-06-30T00:46:22.576Z,0
2016-06-30T00:47:23.187Z,0
2016-06-30T00:48:23.363Z,0
2016-06-30T00:49:22.595Z,0
2016-06-30T00:50:23.158Z,0
2016-06-30T00:51:23.904Z,0
2016-06-30T00:52:23.978Z,0
2016-06-30T00:53:22.741Z,0
2016-06-30T00:54:23.459Z,0
2016-06-30T00:55:23.303Z,0
2016-06-30T00:56:22.532Z,0
2016-06-30T00:57:23.147Z,0
2016-06-30T00:58:23.764Z,0
2016-06-30T00:59:22.538Z,0
2016-06-30T01:00:22.551Z,0
2016-06-30T01:01:23.137Z,0
2016-06-30T01:02:22.550Z,0
2016-06-30T01:03:22.535Z,0
2016-06-30T01:04:23.166Z,0
2016-06-30T01:05:22.532Z,0
2016-06-30T01:06:23.126Z,0
2016-06-30T01:07:23.166Z,0
2016-06-30T01:08:23.138Z,0
2016-06-30T01:09:22.494Z,0
2016-06-30T01:10:23.709Z,0
2016-06-30T01:11:22.506Z,0
2016-06-30T01:12:23.106Z,0
2016-06-30T01:13:23.144Z,0
2016-06-30T01:14:22.526Z,0
2016-06-30T01:15:23.124Z,0
2016-06-30T01:16:22.486Z,0
2016-06-30T01:17:23.106Z,0
2016-06-30T01:18:23.097Z,0
2016-06-30T01:19:22.534Z,0
2016-06-30T01:20:22.473Z,0
2016-06-30T01:21:23.115Z,0
2016-06-30T01:22:22.474Z,0
2016-06-30T01:23:23.074Z,0
2016-06-30T01:24:22.458Z,0
2016-06-30T01:25:25.313Z,0
2016-06-30T01:26:23.283Z,0
2016-06-30T01:27:23.766Z,0
2016-06-30T01:28:23.581Z,0
2016-06-30T01:29:23.058Z,0
2016-06-30T01:30:23.683Z,0
2016-06-30T01:31:23.042Z,0
2016-06-30T01:32:23.926Z,0
2016-06-30T01:33:23.051Z,0
2016-06-30T01:34:22.506Z,0
2016-06-30T01:35:24.929Z,0
2016-06-30T01:36:23.823Z,0
2016-06-30T01:37:23.634Z,0
2016-06-30T01:38:23.627Z,0
2016-06-30T01:39:22.415Z,0
2016-06-30T01:40:22.919Z,0
2016-06-30T01:41:22.702Z,0
2016-06-30T01:42:23.029Z,0
2016-06-30T01:43:23.640Z,0
2016-06-30T01:44:22.408Z,0
2016-06-30T01:45:22.436Z,0
2016-06-30T01:46:21.824Z,0
2016-06-30T01:47:23.017Z,0
2016-06-30T01:48:22.401Z,0
2016-06-30T01:49:22.380Z,0
2016-06-30T01:50:23.020Z,0
2016-06-30T01:51:22.389Z,0
2016-06-30T01:52:23.009Z,0
2016-06-30T01:53:22.378Z,0
2016-06-30T01:54:21.781Z,4
2016-06-30T01:55:21.763Z,4
2016-06-30T01:56:22.982Z,4
2016-06-30T01:57:22.986Z,0
2016-06-30T01:58:23.588Z,0
2016-06-30T01:59:22.347Z,4
2016-06-30T02:00:23.959Z,4
2016-06-30T02:01:23.073Z,4
2016-06-30T02:02:22.753Z,4
2016-06-30T02:03:23.617Z,4
2016-06-30T02:04:22.981Z,4
2016-06-30T02:05:22.347Z,8
2016-06-30T02:06:22.951Z,8
2016-06-30T02:07:22.962Z,8
2016-06-30T02:08:22.934Z,12
2016-06-30T02:09:23.698Z,12
2016-06-30T02:10:23.399Z,12
2016-06-30T02:11:22.585Z,12
2016-06-30T02:12:23.107Z,12
2016-06-30T02:13:22.954Z,16
2016-06-30T02:14:22.316Z,16
2016-06-30T02:15:22.930Z,20
2016-06-30T02:16:22.922Z,20
2016-06-30T02:17:21.696Z,24
2016-06-30T02:18:22.924Z,28
2016-06-30T02:19:22.329Z,28
2016-06-30T02:20:22.892Z,32
2016-06-30T02:21:22.918Z,36
2016-06-30T02:22:22.289Z,44
2016-06-30T02:23:22.301Z,44
2016-06-30T02:24:23.530Z,48
2016-06-30T02:25:22.891Z,56
2016-06-30T02:26:22.276Z,64
2016-06-30T02:27:22.278Z,72
2016-06-30T02:28:22.912Z,76
2016-06-30T02:29:22.882Z,84
2016-06-30T02:30:22.269Z,96
2016-06-30T02:31:23.478Z,104
2016-06-30T02:32:21.697Z,116
2016-06-30T02:33:21.703Z,128
2016-06-30T02:34:22.249Z,140
2016-06-30T02:35:22.884Z,156
2016-06-30T02:36:22.276Z,168
2016-06-30T02:37:22.874Z,180
2016-06-30T02:38:22.851Z,196
2016-06-30T02:39:21.632Z,212
2016-06-30T02:40:22.224Z,228
2016-06-30T02:41:22.841Z,248
2016-06-30T02:42:22.224Z,264
2016-06-30T02:44:24.691Z,308
2016-06-30T02:45:23.687Z,332
2016-06-30T02:46:24.200Z,356
2016-06-30T02:47:23.430Z,380
2016-06-30T02:48:22.830Z,408
2016-06-30T02:49:23.444Z,432
2016-06-30T02:50:22.222Z,464
2016-06-30T02:51:22.190Z,500
2016-06-30T02:52:23.438Z,536
2016-06-30T02:53:23.670Z,576
2016-06-30T02:54:23.177Z,624
2016-06-30T02:55:24.877Z,680
2016-06-30T02:56:23.078Z,748
2016-06-30T02:57:23.227Z,832
2016-06-30T02:58:22.445Z,916
2016-06-30T02:59:23.628Z,992
2016-06-30T03:00:22.165Z,1048
2016-06-30T03:01:21.608Z,1108
2016-06-30T03:02:22.778Z,1168
2016-06-30T03:03:23.373Z,1236
2016-06-30T03:04:22.781Z,1324
2016-06-30T03:05:22.146Z,1400
2016-06-30T03:06:21.533Z,1452
2016-06-30T03:07:22.141Z,1472
2016-06-30T03:08:22.139Z,1472
2016-06-30T03:09:23.359Z,1468
2016-06-30T03:10:21.539Z,1452
2016-06-30T03:11:22.737Z,1456
2016-06-30T03:12:22.122Z,1480
2016-06-30T03:13:22.735Z,1504
2016-06-30T03:14:22.121Z,1560
2016-06-30T03:15:21.502Z,1636
2016-06-30T03:16:21.723Z,1720
2016-06-30T03:17:22.103Z,1800
2016-06-30T03:18:36.386Z,1880
2016-06-30T03:19:23.908Z,1908
2016-06-30T03:20:23.759Z,1936
2016-06-30T03:21:37.137Z,1924
2016-06-30T03:22:23.066Z,1908
2016-06-30T03:23:22.977Z,1916
2016-06-30T03:24:23.329Z,1948
2016-06-30T03:25:22.343Z,1972
2016-06-30T03:26:22.082Z,2000
2016-06-30T03:27:22.242Z,2052
2016-06-30T03:28:22.485Z,2140
2016-06-30T03:29:22.705Z,2280
2016-06-30T03:30:22.247Z,2324
2016-06-30T03:31:21.755Z,2156
2016-06-30T03:32:22.221Z,2188
2016-06-30T03:33:22.069Z,2236
2016-06-30T03:34:21.441Z,2272
2016-06-30T03:35:22.681Z,2320
2016-06-30T03:36:22.058Z,2384
2016-06-30T03:37:22.071Z,2472
2016-06-30T03:38:22.667Z,2580
2016-06-30T03:39:22.069Z,2692
2016-06-30T03:40:22.664Z,2856
2016-06-30T03:41:22.654Z,3092
2016-06-30T03:42:22.043Z,3640
2016-06-30T03:43:23.264Z,3932
2016-06-30T03:44:22.663Z,3824
2016-06-30T03:45:23.288Z,3808
2016-06-30T03:46:23.233Z,4016
2016-06-30T03:47:23.319Z,4264
2016-06-30T03:48:22.098Z,4504
2016-06-30T03:49:22.624Z,4848
2016-06-30T03:50:22.027Z,5156
2016-06-30T03:51:23.243Z,6596
2016-06-30T03:52:22.615Z,6412
2016-06-30T03:53:23.228Z,6024
2016-06-30T03:54:22.610Z,7784
2016-06-30T03:55:22.019Z,9196
2016-06-30T03:56:22.009Z,9324
2016-06-30T03:57:22.001Z,9672
2016-06-30T03:58:22.013Z,9476
2016-06-30T03:59:21.984Z,9616
2016-06-30T04:00:22.015Z,10248
2016-06-30T04:01:23.210Z,10384
2016-06-30T04:02:24.869Z,9808
2016-06-30T04:03:22.928Z,8620
2016-06-30T04:04:21.985Z,7936
2016-06-30T04:05:21.995Z,8468
2016-06-30T04:06:21.806Z,9072
2016-06-30T04:07:22.632Z,9104
2016-06-30T04:08:22.617Z,9316
2016-06-30T04:09:22.610Z,9424
2016-06-30T04:10:22.597Z,9088
2016-06-30T04:11:25.454Z,8924
2016-06-30T04:12:24.409Z,7952
2016-06-30T04:13:24.818Z,7876
2016-06-30T04:14:24.515Z,8504
2016-06-30T04:15:23.804Z,5600
2016-06-30T04:16:22.620Z,5740
2016-06-30T04:17:22.110Z,5596
2016-06-30T04:18:22.632Z,6148
2016-06-30T04:19:22.172Z,6592
2016-06-30T04:20:22.629Z,8008
2016-06-30T04:21:23.239Z,8020
2016-06-30T04:22:22.641Z,8720
2016-06-30T04:23:22.633Z,9112
2016-06-30T04:24:22.041Z,6920
2016-06-30T04:25:23.276Z,8684
2016-06-30T04:26:23.252Z,11360
2016-06-30T04:27:22.665Z,10844
2016-06-30T04:28:21.440Z,10804
2016-06-30T04:29:22.686Z,13084
2016-06-30T04:30:23.278Z,14272
2016-06-30T04:31:22.683Z,14944
2016-06-30T04:32:22.079Z,15200
2016-06-30T04:33:22.083Z,14016
2016-06-30T04:34:22.713Z,14944
2016-06-30T04:35:22.083Z,14784
2016-06-30T04:36:22.702Z,11884
2016-06-30T04:37:22.761Z,14336
2016-06-30T04:38:22.647Z,14336
2016-06-30T04:39:22.313Z,14176
2016-06-30T04:40:36.997Z,12932
2016-06-30T04:41:22.732Z,12932
2016-06-30T04:42:22.741Z,12592
2016-06-30T04:43:22.445Z,10772
2016-06-30T04:44:22.752Z,11164
2016-06-30T04:45:22.759Z,12020
2016-06-30T04:46:23.290Z,10456
2016-06-30T04:47:23.059Z,13672
2016-06-30T04:48:22.172Z,16800
2016-06-30T04:49:36.439Z,19232
2016-06-30T04:50:22.189Z,19744
2016-06-30T04:51:21.591Z,20352
2016-06-30T04:52:21.602Z,19456
2016-06-30T04:53:23.159Z,17888
2016-06-30T04:54:21.605Z,17568
2016-06-30T04:55:22.298Z,18144
2016-06-30T04:56:22.834Z,17760
2016-06-30T04:57:22.260Z,16352
2016-06-30T04:58:22.871Z,15968
2016-06-30T04:59:22.264Z,14720
2016-06-30T05:00:22.864Z,16128
2016-06-30T05:01:22.280Z,19616
2016-06-30T05:02:22.290Z,20896
2016-06-30T05:03:23.530Z,18464
2016-06-30T05:04:21.723Z,16672
2016-06-30T05:05:21.764Z,16608
2016-06-30T05:06:22.935Z,15680
2016-06-30T05:07:22.958Z,16672
2016-06-30T05:08:22.968Z,18272
2016-06-30T05:09:22.338Z,18176
2016-06-30T05:10:22.370Z,19648
2016-06-30T05:11:22.369Z,18176
2016-06-30T05:12:22.978Z,18400
2016-06-30T05:13:22.375Z,17760
2016-06-30T05:14:23.000Z,18016
2016-06-30T05:15:23.635Z,19392
2016-06-30T05:16:22.415Z,21472
2016-06-30T05:17:22.421Z,21024
2016-06-30T05:18:23.647Z,21312
2016-06-30T05:19:22.434Z,24000
2016-06-30T05:20:24.311Z,24000
2016-06-30T05:21:23.951Z,19232
2016-06-30T05:22:25.262Z,24544
2016-06-30T05:23:22.934Z,24192
2016-06-30T05:24:23.107Z,24896
2016-06-30T05:25:24.109Z,21600
2016-06-30T05:26:23.195Z,21472
2016-06-30T05:27:22.838Z,24672
2016-06-30T05:28:23.176Z,27552
2016-06-30T05:29:23.191Z,28640
2016-06-30T05:30:24.026Z,30624
2016-06-30T05:31:25.478Z,28768
2016-06-30T05:32:23.270Z,26880
2016-06-30T05:33:24.677Z,25408
2016-06-30T05:34:23.955Z,27584
2016-06-30T05:35:22.720Z,28736
2016-06-30T05:36:22.680Z,28672
2016-06-30T05:37:22.694Z,27648
2016-06-30T05:38:23.917Z,30048
2016-06-30T05:39:22.650Z,32256
2016-06-30T05:40:23.304Z,33280
2016-06-30T05:41:23.278Z,32576
2016-06-30T05:42:24.059Z,32576
2016-06-30T05:43:22.731Z,32448
2016-06-30T05:44:23.348Z,32288
2016-06-30T05:45:23.356Z,33536
2016-06-30T05:46:23.977Z,37184
2016-06-30T05:47:23.375Z,46368
2016-06-30T05:48:23.385Z,47328
2016-06-30T05:49:22.786Z,43936
2016-06-30T05:50:24.013Z,51424
2016-06-30T05:51:22.223Z,37792
2016-06-30T05:52:23.439Z,35648
2016-06-30T05:53:22.874Z,45024
2016-06-30T05:54:22.852Z,46048
2016-06-30T05:55:24.196Z,45440
2016-06-30T05:57:24.736Z,43296
2016-06-30T05:58:37.787Z,46112
2016-06-30T05:59:23.737Z,37376
2016-06-30T06:00:24.224Z,44448
2016-06-30T06:01:22.344Z,36032
2016-06-30T06:02:22.357Z,31936
2016-06-30T06:03:23.627Z,35808
2016-06-30T06:04:24.613Z,39552
2016-06-30T06:06:23.682Z,38784
2016-06-30T06:07:23.929Z,40640
2016-06-30T06:08:24.495Z,48992
2016-06-30T06:09:24.305Z,49984
2016-06-30T06:10:23.462Z,49408
2016-06-30T06:11:23.874Z,44320
2016-06-30T06:12:23.143Z,41536
2016-06-30T06:13:23.774Z,33824
2016-06-30T06:14:23.781Z,42656
2016-06-30T06:15:23.177Z,39808
2016-06-30T06:16:23.188Z,37984
2016-06-30T06:17:24.455Z,35936
2016-06-30T06:18:23.850Z,41792
2016-06-30T06:19:23.865Z,43776
2016-06-30T06:20:23.273Z,44384
2016-06-30T06:21:23.305Z,43680
2016-06-30T06:22:23.903Z,42688
2016-06-30T06:23:23.951Z,43872
2016-06-30T06:24:23.964Z,43008
2016-06-30T06:25:23.980Z,43872
2016-06-30T06:26:23.381Z,37664
2016-06-30T06:27:24.013Z,34848
2016-06-30T06:28:24.614Z,31296
2016-06-30T06:29:23.442Z,32704
2016-06-30T06:30:24.047Z,32800
2016-06-30T06:31:24.082Z,33376
2016-06-30T06:32:24.081Z,37056
2016-06-30T06:33:24.096Z,37152
2016-06-30T06:34:24.135Z,35584
2016-06-30T06:35:24.739Z,28896
2016-06-30T06:36:22.942Z,46528
2016-06-30T06:37:24.778Z,32416
2016-06-30T06:38:24.218Z,27232
2016-06-30T06:39:25.905Z,41568
2016-06-30T06:40:26.099Z,48384
2016-06-30T06:41:24.727Z,42784
2016-06-30T06:42:24.220Z,42016
2016-06-30T06:43:24.583Z,36416
2016-06-30T06:44:24.275Z,19584
2016-06-30T06:45:24.284Z,43008
2016-06-30T06:46:24.301Z,49376
2016-06-30T06:47:24.311Z,45792
2016-06-30T06:48:24.815Z,40000
2016-06-30T06:49:25.952Z,42720
2016-06-30T06:50:24.951Z,47360
2016-06-30T06:51:24.426Z,48832
2016-06-30T06:52:24.800Z,22688
2016-06-30T06:53:25.689Z,21824
2016-06-30T06:54:24.846Z,51616
2016-06-30T06:55:24.704Z,46080
2016-06-30T06:56:23.919Z,53952
2016-06-30T06:57:24.473Z,57760
2016-06-30T06:58:23.854Z,61792
2016-06-30T06:59:23.872Z,65952
2016-06-30T07:00:23.882Z,68064
2016-06-30T07:01:25.114Z,62336
2016-06-30T07:02:23.912Z,53216
2016-06-30T07:03:25.154Z,50432
2016-06-30T07:04:24.601Z,60768
2016-06-30T07:05:24.567Z,68864
2016-06-30T07:06:25.250Z,55008
2016-06-30T07:07:23.985Z,60224
2016-06-30T07:08:23.425Z,67264
2016-06-30T07:09:25.244Z,62752
2016-06-30T07:10:24.658Z,70944
2016-06-30T07:11:25.279Z,73504
2016-06-30T07:12:24.085Z,70528
2016-06-30T07:13:24.717Z,71072
2016-06-30T07:14:39.674Z,70688
2016-06-30T07:15:41.041Z,70720
2016-06-30T07:16:25.511Z,69664
2016-06-30T07:17:25.824Z,67776
2016-06-30T07:18:24.179Z,67616
2016-06-30T07:19:24.034Z,59552
2016-06-30T07:20:24.215Z,59296
2016-06-30T07:21:24.851Z,54816
2016-06-30T07:22:24.888Z,69184
2016-06-30T07:23:25.137Z,75168
2016-06-30T07:24:25.594Z,65312
2016-06-30T07:25:25.542Z,57120
2016-06-30T07:26:24.964Z,56672
2016-06-30T07:27:24.958Z,56736
2016-06-30T07:28:24.985Z,54432
2016-06-30T07:29:25.175Z,58880
2016-06-30T07:30:25.749Z,58496
2016-06-30T07:31:25.656Z,60064
2016-06-30T07:32:24.489Z,57120
2016-06-30T07:33:25.096Z,59520
2016-06-30T07:34:25.738Z,60672
2016-06-30T07:35:24.518Z,63040
2016-06-30T07:36:25.763Z,62016
2016-06-30T07:37:25.150Z,60928
2016-06-30T07:38:24.583Z,58304
2016-06-30T07:39:25.218Z,55776
2016-06-30T07:40:24.622Z,52288
2016-06-30T07:41:25.246Z,48608
2016-06-30T07:42:25.318Z,51808
2016-06-30T07:43:25.295Z,55168
2016-06-30T07:44:24.075Z,54496
2016-06-30T07:45:25.329Z,54304
2016-06-30T07:46:25.350Z,55200
2016-06-30T07:47:25.375Z,57184
2016-06-30T07:48:25.393Z,61408
2016-06-30T07:49:24.203Z,60192
2016-06-30T07:50:24.839Z,60448
2016-06-30T07:51:25.435Z,60800
2016-06-30T07:52:24.845Z,59776
2016-06-30T07:53:25.491Z,59168
2016-06-30T07:54:25.497Z,59584
2016-06-30T07:55:25.535Z,59296
2016-06-30T07:56:24.938Z,64160
2016-06-30T07:57:28.112Z,64416
2016-06-30T07:58:26.179Z,63072
2016-06-30T07:59:27.940Z,60224
2016-06-30T08:00:25.395Z,60192
2016-06-30T08:01:25.631Z,57216
2016-06-30T08:02:26.375Z,57024
2016-06-30T08:03:25.716Z,62336
2016-06-30T08:04:26.331Z,61056
2016-06-30T08:05:26.351Z,58112
2016-06-30T08:06:26.339Z,58912
2016-06-30T08:07:27.809Z,65728
2016-06-30T08:08:26.712Z,72800
2016-06-30T08:09:27.558Z,71744
2016-06-30T08:10:26.414Z,65664
2016-06-30T08:11:25.214Z,60512
2016-06-30T08:12:25.300Z,64032
2016-06-30T08:13:26.477Z,81056
2016-06-30T08:14:26.509Z,81056
2016-06-30T08:15:26.540Z,73824
2016-06-30T08:16:26.528Z,90464
2016-06-30T08:17:25.329Z,75936
2016-06-30T08:18:25.964Z,79168
2016-06-30T08:19:25.978Z,94368
2016-06-30T08:20:26.010Z,106880
2016-06-30T08:21:25.412Z,98848
2016-06-30T08:22:26.022Z,103616
2016-06-30T08:23:26.117Z,110080
2016-06-30T08:24:26.694Z,87008
2016-06-30T08:25:25.478Z,74432
2016-06-30T08:26:25.532Z,71872
2016-06-30T08:27:25.533Z,77376
2016-06-30T08:28:25.540Z,70080
2016-06-30T08:29:26.807Z,74368
2016-06-30T08:30:26.198Z,59392
2016-06-30T08:31:26.213Z,62784
2016-06-30T08:32:28.089Z,80832
2016-06-30T08:33:28.457Z,49440
2016-06-30T08:34:26.390Z,36480
2016-06-30T08:35:26.310Z,45312
2016-06-30T08:36:27.439Z,40832
2016-06-30T08:37:26.364Z,38528
2016-06-30T08:38:27.290Z,45088
2016-06-30T08:39:25.796Z,59552
2016-06-30T08:40:26.420Z,59456
2016-06-30T08:41:41.461Z,48640
2016-06-30T08:42:27.539Z,41568
2016-06-30T08:44:26.471Z,40544
2016-06-30T08:45:27.466Z,42560
2016-06-30T08:46:26.666Z,36384
2016-06-30T08:47:27.160Z,39360
2016-06-30T08:48:25.947Z,40800
2016-06-30T08:49:25.975Z,40448
2016-06-30T08:50:25.995Z,39840
2016-06-30T08:51:25.990Z,37664
2016-06-30T08:52:26.036Z,35168
2016-06-30T08:53:25.437Z,31072
2016-06-30T08:54:26.648Z,31040
2016-06-30T08:55:26.678Z,31968
2016-06-30T08:56:26.089Z,35168
2016-06-30T08:57:26.739Z,32736
2016-06-30T08:58:26.750Z,30016
2016-06-30T08:59:26.774Z,29952
2016-06-30T09:00:26.780Z,29440
2016-06-30T09:01:26.158Z,28896
2016-06-30T09:02:27.419Z,27968
2016-06-30T09:03:27.403Z,27168
2016-06-30T09:04:25.599Z,26720
2016-06-30T09:05:25.628Z,26752
2016-06-30T09:06:26.277Z,27424
2016-06-30T09:07:26.854Z,27424
2016-06-30T09:08:26.281Z,27744
2016-06-30T09:09:26.890Z,28608
2016-06-30T09:10:26.929Z,29984
2016-06-30T09:11:26.314Z,29984
2016-06-30T09:12:27.554Z,30112
2016-06-30T09:13:27.562Z,31584
2016-06-30T09:14:25.743Z,32736
2016-06-30T09:15:26.374Z,33728
2016-06-30T09:16:29.306Z,33952
2016-06-30T09:17:27.670Z,32896
2016-06-30T09:18:25.816Z,32192
2016-06-30T09:19:27.224Z,31808
2016-06-30T09:20:27.268Z,31040
2016-06-30T09:21:27.258Z,30272
2016-06-30T09:22:27.354Z,29408
2016-06-30T09:23:27.124Z,28608
2016-06-30T09:24:27.109Z,27872
2016-06-30T09:25:27.102Z,27136
2016-06-30T09:26:27.827Z,26592
2016-06-30T09:27:28.306Z,26112
2016-06-30T09:28:27.196Z,25632
2016-06-30T09:29:27.928Z,25632
2016-06-30T09:30:28.297Z,25728
2016-06-30T09:31:27.056Z,25568
2016-06-30T09:32:26.571Z,25408
2016-06-30T09:33:27.193Z,25984
2016-06-30T09:34:26.578Z,27328
2016-06-30T09:35:26.618Z,28544
2016-06-30T09:36:27.228Z,30080
2016-06-30T09:37:27.847Z,31232
2016-06-30T09:38:26.633Z,31520
2016-06-30T09:39:27.865Z,29728
2016-06-30T09:40:26.682Z,28096
2016-06-30T09:41:26.671Z,27328
2016-06-30T09:42:27.916Z,26784
2016-06-30T09:43:27.302Z,27264
2016-06-30T09:44:27.326Z,28320
2016-06-30T09:45:26.097Z,29056
2016-06-30T09:46:26.753Z,29248
2016-06-30T09:47:26.791Z,28960
2016-06-30T09:48:27.372Z,28544
2016-06-30T09:49:26.763Z,28448
2016-06-30T09:50:41.432Z,28416
2016-06-30T09:53:29.067Z,28000
2016-06-30T09:54:27.434Z,28096
2016-06-30T09:55:26.828Z,28064
2016-06-30T09:56:26.907Z,27968
2016-06-30T09:57:28.421Z,28032
2016-06-30T09:58:27.019Z,28064
2016-06-30T09:59:27.489Z,27968
2016-06-30T10:00:28.198Z,28032
2016-06-30T10:02:42.969Z,28128
2016-06-30T10:03:27.414Z,28000
2016-06-30T10:04:28.190Z,28000
2016-06-30T10:05:28.183Z,27968
2016-06-30T10:06:28.466Z,28000
2016-06-30T10:07:28.206Z,27936
2016-06-30T10:08:28.243Z,28032
2016-06-30T10:09:26.979Z,28224
2016-06-30T10:10:27.593Z,28384
2016-06-30T10:11:27.010Z,28448
2016-06-30T10:12:27.684Z,28704
2016-06-30T10:13:27.027Z,28992
2016-06-30T10:14:27.037Z,28960
2016-06-30T10:15:27.047Z,28960
2016-06-30T10:16:27.065Z,28896
2016-06-30T10:17:27.680Z,28672
2016-06-30T10:18:28.298Z,28768
2016-06-30T10:19:27.703Z,29760
2016-06-30T10:20:27.097Z,30624
2016-06-30T10:21:27.714Z,31392
2016-06-30T10:22:27.743Z,30336
2016-06-30T10:23:27.758Z,28480
2016-06-30T10:24:26.534Z,27168
2016-06-30T10:25:27.767Z,26784
2016-06-30T10:26:27.776Z,27328
2016-06-30T10:27:27.787Z,27904
2016-06-30T10:28:26.611Z,28192
2016-06-30T10:29:28.421Z,27520
2016-06-30T10:30:28.434Z,26560
2016-06-30T10:31:27.848Z,25984
2016-06-30T10:32:27.859Z,25632
2016-06-30T10:33:28.491Z,25408
2016-06-30T10:35:28.222Z,24800
2016-06-30T10:36:29.591Z,24320
2016-06-30T10:37:29.209Z,23648
2016-06-30T10:38:27.784Z,24000
2016-06-30T10:39:28.827Z,24864
2016-06-30T10:40:28.742Z,25728
2016-06-30T10:41:27.950Z,26112
2016-06-30T10:42:27.366Z,26016
2016-06-30T10:43:29.541Z,25664
2016-06-30T10:44:29.950Z,25216
2016-06-30T10:45:28.599Z,24704
2016-06-30T10:46:28.970Z,24160
2016-06-30T10:47:29.398Z,23616
2016-06-30T10:48:28.753Z,23360
2016-06-30T10:49:27.413Z,23552
2016-06-30T10:50:26.818Z,23872
2016-06-30T10:51:28.042Z,24448
2016-06-30T10:52:28.054Z,25152
2016-06-30T10:53:28.098Z,25536
2016-06-30T10:54:27.479Z,25760
2016-06-30T10:55:27.465Z,26112
2016-06-30T10:56:27.489Z,26464
2016-06-30T10:57:27.503Z,26784
2016-06-30T10:58:27.525Z,27104
2016-06-30T10:59:28.132Z,27264
2016-06-30T11:00:28.746Z,27104
2016-06-30T11:01:28.773Z,26976
2016-06-30T11:02:28.179Z,26784
2016-06-30T11:03:28.147Z,26880
2016-06-30T11:04:27.582Z,27264
2016-06-30T11:05:28.810Z,27680
2016-06-30T11:06:28.250Z,28000
2016-06-30T11:07:28.811Z,28928
2016-06-30T11:08:27.633Z,29312
2016-06-30T11:09:29.583Z,29280
2016-06-30T11:10:29.840Z,29024
2016-06-30T11:11:28.657Z,28352
2016-06-30T11:12:28.259Z,28128
2016-06-30T11:13:28.567Z,28448
2016-06-30T11:14:28.281Z,28416
2016-06-30T11:15:28.283Z,28128
2016-06-30T11:16:28.315Z,27712
2016-06-30T11:17:28.933Z,27552
2016-06-30T11:18:42.379Z,27648
2016-06-30T11:20:28.970Z,27872
2016-06-30T11:21:27.906Z,27904
2016-06-30T11:22:29.213Z,27776
2016-06-30T11:23:28.355Z,28064
2016-06-30T11:24:28.377Z,28448
2016-06-30T11:25:29.041Z,28608
2016-06-30T11:26:27.821Z,28768
2016-06-30T11:27:28.419Z,28576
2016-06-30T11:28:28.436Z,28320
2016-06-30T11:29:27.814Z,28064
2016-06-30T11:30:29.057Z,27744
2016-06-30T11:31:27.846Z,27200
2016-06-30T11:32:27.841Z,26848
2016-06-30T11:33:28.486Z,26560
2016-06-30T11:34:27.263Z,26688
2016-06-30T11:35:28.515Z,27296
2016-06-30T11:36:29.098Z,27776
2016-06-30T11:37:27.903Z,27904
2016-06-30T11:38:28.524Z,28224
2016-06-30T11:39:27.937Z,28288
2016-06-30T11:40:27.941Z,27872
2016-06-30T11:41:28.002Z,28064
2016-06-30T11:42:28.562Z,28320
2016-06-30T11:43:28.647Z,27936
2016-06-30T11:44:28.602Z,27680
2016-06-30T11:45:28.625Z,27808
2016-06-30T11:46:29.205Z,27808
2016-06-30T11:47:28.614Z,28320
2016-06-30T11:48:28.651Z,28864
2016-06-30T11:49:28.640Z,28608
2016-06-30T11:50:29.278Z,27360
2016-06-30T11:51:28.050Z,26272
2016-06-30T11:52:27.441Z,26432
2016-06-30T11:53:29.948Z,27264
2016-06-30T11:54:29.378Z,28640
2016-06-30T11:55:28.705Z,29760
2016-06-30T11:56:28.569Z,29824
2016-06-30T11:57:28.377Z,29312
2016-06-30T11:58:28.175Z,28192
2016-06-30T11:59:28.002Z,27424
2016-06-30T12:00:28.161Z,28160
2016-06-30T12:01:28.182Z,28768
2016-06-30T12:02:30.255Z,28320
2016-06-30T12:03:30.065Z,27232
2016-06-30T12:04:30.193Z,26656
2016-06-30T12:05:28.819Z,27008
2016-06-30T12:06:29.270Z,28320
2016-06-30T12:07:28.842Z,29152
2016-06-30T12:08:28.374Z,29184
2016-06-30T12:09:29.073Z,29632
2016-06-30T12:10:28.246Z,28992
2016-06-30T12:11:28.861Z,27296
2016-06-30T12:12:28.261Z,26560
2016-06-30T12:13:28.292Z,27808
2016-06-30T12:14:28.903Z,28224
2016-06-30T12:15:28.930Z,27200
2016-06-30T12:16:27.723Z,26016
2016-06-30T12:17:28.316Z,26176
2016-06-30T12:18:29.565Z,27008
2016-06-30T12:19:28.346Z,27840
2016-06-30T12:20:28.946Z,28224
2016-06-30T12:21:28.966Z,27872
2016-06-30T12:22:27.755Z,27104
2016-06-30T12:23:28.380Z,26016
2016-06-30T12:24:29.008Z,25600
2016-06-30T12:25:28.405Z,24928
2016-06-30T12:26:27.847Z,24128
2016-06-30T12:27:44.151Z,23424
2016-06-30T12:28:44.448Z,23232
2016-06-30T12:29:29.378Z,23104
2016-06-30T12:30:29.063Z,22464
2016-06-30T12:31:30.274Z,21568
2016-06-30T12:32:29.077Z,21216
2016-06-30T12:33:29.111Z,21216
2016-06-30T12:34:29.097Z,21632
2016-06-30T12:35:29.110Z,22176
2016-06-30T12:37:31.604Z,22464
2016-06-30T12:38:29.743Z,22272
2016-06-30T12:39:29.158Z,22048
2016-06-30T12:40:29.764Z,21920
2016-06-30T12:41:28.581Z,22048
2016-06-30T12:42:29.989Z,22016
2016-06-30T12:43:28.934Z,21952
2016-06-30T12:44:29.203Z,22368
2016-06-30T12:45:29.216Z,23040
2016-06-30T12:46:29.213Z,24192
2016-06-30T12:47:29.219Z,24992
2016-06-30T12:48:29.243Z,25504
2016-06-30T12:49:28.668Z,27168
2016-06-30T12:50:29.267Z,28832
2016-06-30T12:51:28.678Z,29184
2016-06-30T12:52:29.327Z,29536
2016-06-30T12:53:29.937Z,29344
2016-06-30T12:54:28.718Z,28192
2016-06-30T12:55:29.314Z,26464
2016-06-30T12:56:29.922Z,25184
2016-06-30T12:57:28.717Z,25344
2016-06-30T12:58:29.365Z,27264
2016-06-30T12:59:28.733Z,27776
2016-06-30T13:00:29.973Z,26816
2016-06-30T13:01:29.358Z,25344
2016-06-30T13:02:29.988Z,24064
2016-06-30T13:03:28.212Z,23680
2016-06-30T13:04:29.380Z,23680
2016-06-30T13:05:29.421Z,24000
2016-06-30T13:06:29.421Z,24096
2016-06-30T13:07:28.816Z,23680
2016-06-30T13:08:29.427Z,23392
2016-06-30T13:09:28.836Z,23488
2016-06-30T13:10:29.451Z,23744
2016-06-30T13:11:29.127Z,23648
2016-06-30T13:12:30.372Z,23488
2016-06-30T13:13:31.557Z,23840
2016-06-30T13:14:30.831Z,24224
2016-06-30T13:15:29.782Z,24352
2016-06-30T13:16:30.109Z,23712
2016-06-30T13:17:29.992Z,23136
2016-06-30T13:18:30.749Z,23008
2016-06-30T13:19:29.151Z,23040
2016-06-30T13:20:31.922Z,22624
2016-06-30T13:22:30.445Z,22240
2016-06-30T13:23:30.815Z,21888
2016-06-30T13:24:30.082Z,21344
2016-06-30T13:25:29.620Z,20384
2016-06-30T13:26:29.537Z,18816
2016-06-30T13:27:29.903Z,17408